createdAt,value
2023-03-18T00:00:43.633Z,14.45
2023-03-18T00:03:11.421Z,13.77
2023-03-18T00:05:38.188Z,11.63
2023-03-18T00:08:06.681Z,10.75
2023-03-18T00:10:35.245Z,14.15
2023-03-18T00:13:04.767Z,12.15
2023-03-18T00:15:31.871Z,11.57
2023-03-18T00:17:59.935Z,14.02
2023-03-18T00:20:38.785Z,13.27
2023-03-18T00:23:08.675Z,17.92
2023-03-18T00:25:36.782Z,17.15
2023-03-18T00:28:05.220Z,20.38
2023-03-18T00:30:32.989Z,16.00
2023-03-18T00:33:00.566Z,12.00
2023-03-18T00:35:31.062Z,16.42
2023-03-18T00:38:03.950Z,15.77
2023-03-18T00:40:43.358Z,18.77
2023-03-18T00:43:12.748Z,12.60
2023-03-18T00:45:41.399Z,16.00
2023-03-18T00:48:09.024Z,11.98
2023-03-18T00:50:37.140Z,13.85
2023-03-18T00:53:04.266Z,13.65
2023-03-18T00:55:31.115Z,12.75
2023-03-18T00:57:57.977Z,15.20
2023-03-18T01:00:26.305Z,14.63
2023-03-18T01:02:53.631Z,14.02
2023-03-18T01:05:21.919Z,13.07
2023-03-18T01:07:49.416Z,12.07
2023-03-18T01:10:17.116Z,11.60
2023-03-18T01:12:48.252Z,14.50
2023-03-18T01:15:17.785Z,12.02
2023-03-18T01:17:45.602Z,12.85
2023-03-18T01:20:14.368Z,14.50
2023-03-18T01:22:42.342Z,12.95
2023-03-18T01:25:11.740Z,12.48
2023-03-18T01:27:40.723Z,11.48
2023-03-18T01:30:09.283Z,11.70
2023-03-18T01:32:36.696Z,12.43
2023-03-18T01:35:03.907Z,14.57
2023-03-18T01:37:31.601Z,10.15
2023-03-18T01:40:11.396Z,10.88
2023-03-18T01:42:38.952Z,11.23
2023-03-18T01:45:21.942Z,13.02
2023-03-18T01:47:51.692Z,14.02
2023-03-18T01:50:24.575Z,13.38
2023-03-18T01:52:58.064Z,9.77
2023-03-18T01:57:54.444Z,13.57
2023-03-18T02:00:23.471Z,13.50
2023-03-18T02:02:53.723Z,16.23
2023-03-18T02:07:51.783Z,11.05
2023-03-18T02:10:25.373Z,16.98
2023-03-18T02:13:02.604Z,15.02
2023-03-18T02:15:35.353Z,13.68
2023-03-18T02:18:30.958Z,11.82
2023-03-18T02:21:04.154Z,16.67
2023-03-18T02:23:53.070Z,11.48
2023-03-18T02:26:44.622Z,13.98
2023-03-18T02:29:14.779Z,14.93
2023-03-18T02:31:52.207Z,13.38
2023-03-18T02:34:25.614Z,13.50
2023-03-18T02:36:54.810Z,12.85
2023-03-18T02:39:23.146Z,18.83
2023-03-18T02:41:53.348Z,17.13
2023-03-18T02:44:21.296Z,15.25
2023-03-18T02:47:14.329Z,17.23
2023-03-18T02:49:41.495Z,12.25
2023-03-18T02:52:08.728Z,14.35
2023-03-18T02:54:36.159Z,14.13
2023-03-18T02:57:03.143Z,24.23
2023-03-18T02:59:32.505Z,15.50
2023-03-18T03:02:00.809Z,18.80
2023-03-18T03:04:28.173Z,13.93
2023-03-18T03:06:56.889Z,17.40
2023-03-18T03:09:37.859Z,20.80
2023-03-18T03:12:06.818Z,13.23
2023-03-18T03:14:36.974Z,17.42
2023-03-18T03:17:04.367Z,15.75
2023-03-18T03:19:31.839Z,13.18
2023-03-18T03:21:58.918Z,14.55
2023-03-18T03:24:25.894Z,18.10
2023-03-18T03:26:52.766Z,14.80
2023-03-18T03:29:20.380Z,16.35
2023-03-18T03:31:49.394Z,16.05
2023-03-18T03:34:16.131Z,15.35
2023-03-18T03:36:43.173Z,12.77
2023-03-18T03:39:10.745Z,18.67
2023-03-18T03:41:37.546Z,12.75
2023-03-18T03:44:04.920Z,14.02
2023-03-18T03:46:32.284Z,14.93
2023-03-18T03:48:59.672Z,14.13
2023-03-18T03:51:26.425Z,12.80
2023-03-18T03:53:53.294Z,11.75
2023-03-18T03:56:20.112Z,13.73
2023-03-18T03:58:47.008Z,13.82
2023-03-18T04:01:14.183Z,13.40
2023-03-18T04:03:42.581Z,12.23
2023-03-18T04:06:09.353Z,12.23
2023-03-18T04:08:41.577Z,14.65
2023-03-18T04:11:08.420Z,13.38
2023-03-18T04:13:35.182Z,12.93
2023-03-18T04:16:04.115Z,12.73
2023-03-18T04:18:31.175Z,12.05
2023-03-18T04:20:57.906Z,11.15
2023-03-18T04:23:42.615Z,14.32
2023-03-18T04:26:09.412Z,16.35
2023-03-18T04:28:36.440Z,14.35
2023-03-18T04:31:05.849Z,11.80
2023-03-18T04:33:33.085Z,11.02
2023-03-18T04:36:00.360Z,13.73
2023-03-18T04:38:28.552Z,18.98
2023-03-18T04:40:55.779Z,15.23
2023-03-18T04:43:22.962Z,18.63
2023-03-18T04:45:50.908Z,16.55
2023-03-18T04:48:18.443Z,17.90
2023-03-18T04:50:46.366Z,17.27
2023-03-18T04:53:18.790Z,14.32
2023-03-18T04:55:45.710Z,16.73
2023-03-18T04:58:14.422Z,19.05
2023-03-18T05:00:50.285Z,20.48
2023-03-18T05:03:25.384Z,15.95
2023-03-18T05:05:53.520Z,19.25
2023-03-18T05:08:29.057Z,18.65
2023-03-18T05:10:56.505Z,18.75
2023-03-18T05:13:24.173Z,17.73
2023-03-18T05:15:53.646Z,15.80
2023-03-18T05:18:21.140Z,14.60
2023-03-18T05:20:50.851Z,13.55
2023-03-18T05:23:18.926Z,14.25
2023-03-18T05:25:53.425Z,17.77
2023-03-18T05:28:22.775Z,14.45
2023-03-18T05:31:05.804Z,16.58
2023-03-18T05:33:36.075Z,16.63
2023-03-18T05:36:03.733Z,18.05
2023-03-18T05:38:36.473Z,23.75
2023-03-18T05:41:03.368Z,20.27
2023-03-18T05:43:37.794Z,15.73
2023-03-18T05:46:05.959Z,16.77
2023-03-18T05:48:48.971Z,14.48
2023-03-18T05:51:15.976Z,15.23
2023-03-18T05:53:42.785Z,13.90
2023-03-18T05:56:20.349Z,15.32
2023-03-18T05:58:51.260Z,14.68
2023-03-18T06:01:27.302Z,12.25
2023-03-18T06:03:55.351Z,14.57
2023-03-18T06:06:22.108Z,15.02
2023-03-18T06:08:48.901Z,16.40
2023-03-18T06:11:15.767Z,11.77
2023-03-18T06:13:43.430Z,13.77
2023-03-18T06:16:11.550Z,14.15
2023-03-18T06:18:39.018Z,14.70
2023-03-18T06:21:09.153Z,13.57
2023-03-18T06:23:36.762Z,12.15
2023-03-18T06:26:04.345Z,11.63
2023-03-18T06:28:36.662Z,13.57
2023-03-18T06:31:10.888Z,12.20
2023-03-18T06:33:38.568Z,11.93
2023-03-18T06:36:08.354Z,11.13
2023-03-18T06:38:35.157Z,12.95
2023-03-18T06:41:02.609Z,12.13
2023-03-18T06:43:33.379Z,11.88
2023-03-18T06:46:00.888Z,10.77
2023-03-18T06:48:28.963Z,9.45
2023-03-18T06:50:57.422Z,11.93
2023-03-18T06:53:30.530Z,9.18
2023-03-18T06:55:58.437Z,9.88
2023-03-18T06:58:30.670Z,9.68
2023-03-18T07:01:04.889Z,10.68
2023-03-18T07:03:37.508Z,11.95
2023-03-18T07:06:04.607Z,13.77
2023-03-18T07:08:32.493Z,9.00
2023-03-18T07:10:59.287Z,11.10
2023-03-18T07:13:27.100Z,10.40
2023-03-18T07:15:56.698Z,9.07
2023-03-18T07:18:25.670Z,9.88
2023-03-18T07:20:52.853Z,10.93
2023-03-18T07:23:22.346Z,9.65
2023-03-18T07:25:49.818Z,11.15
2023-03-18T07:28:19.529Z,11.68
2023-03-18T07:30:47.071Z,9.07
2023-03-18T07:33:14.431Z,9.35
2023-03-18T07:35:41.853Z,9.02
2023-03-18T07:38:09.813Z,9.18
2023-03-18T07:40:37.660Z,8.57
2023-03-18T07:43:05.852Z,7.25
2023-03-18T07:45:33.516Z,14.15
2023-03-18T07:48:00.966Z,9.73
2023-03-18T07:50:28.064Z,8.63
2023-03-18T07:52:55.200Z,9.85
2023-03-18T07:55:22.003Z,10.40
2023-03-18T07:57:49.297Z,9.65
2023-03-18T08:00:16.874Z,11.70
2023-03-18T08:02:43.940Z,6.32
2023-03-18T08:05:11.453Z,11.13
2023-03-18T08:07:38.561Z,10.32
2023-03-18T08:10:06.086Z,9.95
2023-03-18T08:12:45.242Z,9.63
2023-03-18T08:15:18.268Z,10.60
2023-03-18T08:17:45.240Z,11.18
2023-03-18T08:20:12.498Z,9.25
2023-03-18T08:22:39.591Z,8.73
2023-03-18T08:25:06.984Z,14.65
2023-03-18T08:27:33.768Z,8.48
2023-03-18T08:30:03.046Z,10.65
2023-03-18T08:32:30.849Z,6.35
2023-03-18T08:34:57.915Z,7.38
2023-03-18T08:37:24.891Z,10.05
2023-03-18T08:39:51.659Z,8.15
2023-03-18T08:42:19.218Z,7.65
2023-03-18T08:44:45.962Z,8.52
2023-03-18T08:47:12.726Z,8.77
2023-03-18T08:49:39.508Z,7.65
2023-03-18T08:52:06.999Z,8.93
2023-03-18T08:54:34.003Z,8.65
2023-03-18T08:57:00.746Z,10.80
2023-03-18T08:59:27.549Z,8.05
2023-03-18T09:01:54.290Z,7.85
2023-03-18T09:04:21.016Z,10.55
2023-03-18T09:06:48.997Z,10.18
2023-03-18T09:09:16.819Z,6.95
2023-03-18T09:11:45.704Z,9.50
2023-03-18T09:14:13.412Z,9.38
2023-03-18T09:16:40.835Z,9.80
2023-03-18T09:19:07.636Z,10.98
2023-03-18T09:21:34.341Z,14.32
2023-03-18T09:24:01.092Z,9.32
2023-03-18T09:26:27.803Z,10.25
2023-03-18T09:28:54.518Z,10.07
2023-03-18T09:31:21.382Z,9.35
2023-03-18T09:33:48.390Z,7.60
2023-03-18T09:36:15.744Z,7.00
2023-03-18T09:38:42.714Z,7.63
2023-03-18T09:41:21.214Z,7.88
2023-03-18T09:44:02.822Z,7.38
2023-03-18T09:46:41.601Z,9.02
2023-03-18T09:49:23.632Z,9.60
2023-03-18T09:52:14.463Z,7.20
2023-03-18T09:55:18.035Z,9.10
2023-03-18T09:57:47.620Z,9.18
2023-03-18T10:00:24.381Z,8.90
2023-03-18T10:02:57.539Z,6.95
2023-03-18T10:05:48.628Z,9.10
2023-03-18T10:08:27.421Z,9.02
2023-03-18T10:10:54.357Z,10.20
2023-03-18T10:13:31.814Z,8.07
2023-03-18T10:16:03.678Z,8.05
2023-03-18T10:18:33.651Z,8.27
2023-03-18T10:21:35.091Z,7.68
2023-03-18T10:24:13.608Z,8.77
2023-03-18T10:27:17.164Z,8.25
2023-03-18T10:29:46.824Z,7.10
2023-03-18T10:32:25.134Z,7.43
2023-03-18T10:35:17.451Z,9.02
2023-03-18T10:38:04.647Z,10.50
2023-03-18T10:40:41.439Z,11.23
2023-03-18T10:43:17.163Z,8.50
2023-03-18T10:45:45.316Z,7.13
2023-03-18T10:48:21.103Z,7.25
2023-03-18T10:51:07.706Z,7.55
2023-03-18T10:53:55.702Z,9.45
2023-03-18T10:56:22.642Z,7.07
2023-03-18T10:58:52.371Z,9.00
2023-03-18T11:01:23.360Z,11.75
2023-03-18T11:04:06.829Z,8.63
2023-03-18T11:09:09.994Z,6.20
2023-03-18T11:11:42.401Z,9.02
2023-03-18T11:14:20.964Z,10.43
2023-03-18T11:17:01.155Z,8.07
2023-03-18T11:19:32.684Z,9.77
2023-03-18T11:22:24.845Z,8.43
2023-03-18T11:25:14.020Z,8.95
2023-03-18T11:27:50.593Z,7.40
2023-03-18T11:30:41.536Z,7.28
2023-03-18T11:33:11.941Z,8.57
2023-03-18T11:35:45.287Z,8.05
2023-03-18T11:38:16.642Z,8.07
2023-03-18T11:40:43.905Z,8.15
2023-03-18T11:43:19.673Z,7.22
2023-03-18T11:45:57.878Z,8.73
2023-03-18T11:48:40.492Z,10.15
2023-03-18T11:51:35.223Z,7.30
2023-03-18T11:54:49.141Z,6.65
2023-03-18T11:57:32.351Z,10.25
2023-03-18T12:00:17.687Z,7.22
2023-03-18T12:03:23.036Z,9.05
2023-03-18T12:05:58.667Z,6.32
2023-03-18T12:08:31.753Z,7.45
2023-03-18T12:11:30.851Z,11.30
2023-03-18T12:14:19.201Z,7.57
2023-03-18T12:17:15.141Z,9.65
2023-03-18T12:19:44.848Z,7.97
2023-03-18T12:22:24.079Z,5.85
2023-03-18T12:25:06.747Z,10.43
2023-03-18T12:27:52.577Z,7.03
2023-03-18T12:31:00.742Z,7.75
2023-03-18T12:33:58.050Z,8.90
2023-03-18T12:36:30.303Z,6.65
2023-03-18T12:39:04.189Z,7.25
2023-03-18T12:41:49.823Z,8.57
2023-03-18T12:44:37.964Z,7.80
2023-03-18T12:47:25.888Z,8.05
2023-03-18T12:50:03.436Z,7.78
2023-03-18T12:52:38.640Z,9.32
2023-03-18T12:55:22.647Z,6.25
2023-03-18T12:57:50.713Z,5.45
2023-03-18T13:00:28.448Z,8.82
2023-03-18T13:03:28.873Z,11.75
2023-03-18T13:06:05.131Z,6.93
2023-03-18T13:08:52.479Z,6.00
2023-03-18T13:11:40.591Z,14.40
2023-03-18T13:14:13.430Z,9.90
2023-03-18T13:16:41.471Z,4.50
2023-03-18T13:19:10.887Z,7.32
2023-03-18T13:21:48.299Z,7.43
2023-03-18T13:24:23.896Z,8.50
2023-03-18T13:27:20.983Z,6.75
2023-03-18T13:30:21.362Z,10.65
2023-03-18T13:32:56.641Z,6.53
2023-03-18T13:35:41.200Z,5.45
2023-03-18T13:38:33.584Z,5.65
2023-03-18T13:41:18.783Z,8.70
2023-03-18T13:43:49.501Z,6.88
2023-03-18T13:46:26.031Z,7.65
2023-03-18T13:49:01.266Z,7.82
2023-03-18T13:51:30.745Z,7.85
2023-03-18T13:54:12.247Z,7.10
2023-03-18T13:56:42.837Z,6.57
2023-03-18T13:59:34.582Z,7.55
2023-03-18T14:02:29.511Z,5.95
2023-03-18T14:05:00.057Z,7.45
2023-03-18T14:07:27.862Z,8.73
2023-03-18T14:10:17.235Z,7.60
2023-03-18T14:12:49.848Z,8.45
2023-03-18T14:15:28.748Z,6.72
2023-03-18T14:17:58.505Z,8.55
2023-03-18T14:20:53.423Z,6.97
2023-03-18T14:23:44.356Z,6.72
2023-03-18T14:26:26.655Z,7.13
2023-03-18T14:29:02.742Z,5.85
2023-03-18T14:31:38.461Z,5.68
2023-03-18T14:34:24.563Z,6.53
2023-03-18T14:36:53.989Z,5.75
2023-03-18T14:39:25.816Z,6.63
2023-03-18T14:41:57.122Z,7.68
2023-03-18T14:44:46.549Z,6.43
2023-03-18T14:47:39.517Z,6.95
2023-03-18T14:50:24.771Z,7.90
2023-03-18T14:52:56.678Z,10.00
2023-03-18T14:55:35.813Z,6.22
2023-03-18T14:58:03.210Z,5.95
2023-03-18T15:00:34.577Z,6.10
2023-03-18T15:03:07.746Z,5.13
2023-03-18T15:05:41.470Z,6.50
2023-03-18T15:08:15.179Z,5.82
2023-03-18T15:10:43.127Z,5.35
2023-03-18T15:13:14.935Z,5.57
2023-03-18T15:15:42.909Z,4.32
2023-03-18T15:18:32.573Z,6.80
2023-03-18T15:21:07.864Z,5.53
2023-03-18T15:23:42.827Z,5.70
2023-03-18T15:26:20.959Z,6.95
2023-03-18T15:28:49.163Z,6.53
2023-03-18T15:31:45.309Z,7.30
2023-03-18T15:34:31.837Z,7.03
2023-03-18T15:37:02.015Z,5.88
2023-03-18T15:39:36.192Z,10.80
2023-03-18T15:42:11.620Z,6.18
2023-03-18T15:44:39.579Z,5.30
2023-03-18T15:47:43.560Z,5.85
2023-03-18T15:52:43.752Z,4.65
2023-03-18T15:55:35.648Z,7.90
2023-03-18T15:58:06.040Z,5.68
2023-03-18T16:00:34.345Z,5.50
2023-03-18T16:03:01.235Z,7.38
2023-03-18T16:05:29.212Z,7.75
2023-03-18T16:07:57.051Z,7.03
2023-03-18T16:10:26.339Z,7.50
2023-03-18T16:13:01.720Z,5.80
2023-03-18T16:15:29.852Z,5.68
2023-03-18T16:17:57.851Z,5.57
2023-03-18T16:20:30.319Z,7.20
2023-03-18T16:22:57.931Z,8.85
2023-03-18T16:25:27.153Z,5.30
2023-03-18T16:27:56.347Z,7.07
2023-03-18T16:30:26.620Z,5.22
2023-03-18T16:32:54.836Z,5.38
2023-03-18T16:35:24.549Z,4.10
2023-03-18T16:37:51.966Z,5.93
2023-03-18T16:40:21.562Z,6.30
2023-03-18T16:42:49.144Z,5.30
2023-03-18T16:45:18.554Z,4.82
2023-03-18T16:47:47.367Z,5.35
2023-03-18T16:50:22.604Z,6.43
2023-03-18T16:52:50.446Z,5.03
2023-03-18T16:55:19.456Z,6.50
2023-03-18T16:57:59.000Z,7.65
2023-03-18T17:00:32.086Z,9.23
2023-03-18T17:03:00.201Z,9.18
2023-03-18T17:05:27.817Z,6.10
2023-03-18T17:07:55.074Z,6.82
2023-03-18T17:10:26.326Z,7.63
2023-03-18T17:13:02.548Z,7.47
2023-03-18T17:15:32.453Z,6.10
2023-03-18T17:17:59.755Z,10.25
2023-03-18T17:20:29.083Z,6.13
2023-03-18T17:22:56.488Z,6.35
2023-03-18T17:25:24.449Z,7.35
2023-03-18T17:27:59.903Z,9.15
2023-03-18T17:30:37.225Z,9.55
2023-03-18T17:33:05.326Z,13.30
2023-03-18T17:35:32.942Z,12.32
2023-03-18T17:37:59.876Z,12.88
2023-03-18T17:40:30.405Z,9.07
2023-03-18T17:42:57.368Z,9.80
2023-03-18T17:45:32.680Z,8.95
2023-03-18T17:48:36.442Z,13.32
2023-03-18T17:51:12.055Z,12.82
2023-03-18T17:53:48.495Z,13.23
2023-03-18T17:56:17.519Z,15.60
2023-03-18T17:58:47.202Z,12.50
2023-03-18T18:01:19.753Z,15.93
2023-03-18T18:03:47.846Z,13.32
2023-03-18T18:06:26.105Z,19.67
2023-03-18T18:08:56.110Z,13.35
2023-03-18T18:11:27.261Z,14.15
2023-03-18T18:14:02.101Z,19.75
2023-03-18T18:16:29.327Z,21.50
2023-03-18T18:18:56.146Z,13.13
2023-03-18T18:21:25.794Z,16.90
2023-03-18T18:23:52.636Z,15.50
2023-03-18T18:26:22.148Z,14.45
2023-03-18T18:28:51.504Z,15.98
2023-03-18T18:31:20.042Z,15.93
2023-03-18T18:33:49.969Z,14.57
2023-03-18T18:36:18.099Z,19.10
2023-03-18T18:38:45.158Z,16.73
2023-03-18T18:41:12.183Z,17.27
2023-03-18T18:43:39.175Z,12.20
2023-03-18T18:46:15.041Z,17.00
2023-03-18T18:48:43.721Z,14.07
2023-03-18T18:51:18.332Z,16.50
2023-03-18T18:53:46.399Z,17.67
2023-03-18T18:56:19.883Z,15.57
2023-03-18T18:58:47.617Z,18.27
2023-03-18T19:01:15.173Z,21.83
2023-03-18T19:03:42.242Z,14.10
2023-03-18T19:06:26.480Z,16.60
2023-03-18T19:08:56.632Z,16.75
2023-03-18T19:11:24.818Z,15.20
2023-03-18T19:13:52.384Z,18.33
2023-03-18T19:16:22.047Z,15.93
2023-03-18T19:18:48.978Z,17.13
2023-03-18T19:21:15.779Z,15.00
2023-03-18T19:23:42.464Z,22.35
2023-03-18T19:26:13.922Z,20.05
2023-03-18T19:28:58.336Z,22.75
2023-03-18T19:31:30.605Z,17.55
2023-03-18T19:34:00.248Z,18.40
2023-03-18T19:36:32.737Z,18.80
2023-03-18T19:39:01.304Z,22.43
2023-03-18T19:41:28.653Z,19.45
2023-03-18T19:43:59.738Z,23.13
2023-03-18T19:46:39.202Z,17.77
2023-03-18T19:49:24.167Z,18.35
2023-03-18T19:51:52.572Z,15.32
2023-03-18T19:54:31.529Z,18.42
2023-03-18T19:57:01.476Z,16.67
2023-03-18T19:59:37.403Z,16.27
2023-03-18T20:02:19.885Z,18.45
2023-03-18T20:04:47.942Z,20.02
2023-03-18T20:07:14.870Z,18.48
2023-03-18T20:09:41.765Z,20.58
2023-03-18T20:12:22.829Z,20.90
2023-03-18T20:14:49.818Z,22.67
2023-03-18T20:17:34.564Z,19.00
2023-03-18T20:20:01.384Z,20.40
2023-03-18T20:22:40.125Z,18.88
2023-03-18T20:25:14.876Z,19.52
2023-03-18T20:27:42.593Z,17.45
2023-03-18T20:30:32.317Z,21.98
2023-03-18T20:33:04.249Z,20.73
2023-03-18T20:35:34.026Z,21.45
2023-03-18T20:38:13.963Z,17.67
2023-03-18T20:40:42.562Z,20.52
2023-03-18T20:43:15.478Z,17.25
2023-03-18T20:45:42.319Z,26.80
2023-03-18T20:48:09.714Z,18.15
2023-03-18T20:50:37.111Z,19.95
2023-03-18T20:53:06.074Z,20.15
2023-03-18T20:55:35.383Z,26.60
2023-03-18T20:58:03.533Z,14.95
2023-03-18T21:00:33.228Z,20.45
2023-03-18T21:03:01.834Z,17.90
2023-03-18T21:05:28.669Z,21.08
2023-03-18T21:07:55.928Z,17.95
2023-03-18T21:10:25.750Z,21.73
2023-03-18T21:12:53.029Z,20.08
2023-03-18T21:15:22.975Z,21.63
2023-03-18T21:17:50.340Z,21.60
2023-03-18T21:20:22.408Z,27.67
2023-03-18T21:22:50.580Z,24.30
2023-03-18T21:25:26.553Z,22.95
2023-03-18T21:27:53.913Z,18.63
2023-03-18T21:30:22.729Z,18.60
2023-03-18T21:32:51.021Z,19.65
2023-03-18T21:35:21.775Z,22.77
2023-03-18T21:37:48.784Z,20.60
2023-03-18T21:40:18.673Z,19.00
2023-03-18T21:42:46.607Z,21.45
2023-03-18T21:45:16.865Z,19.13
2023-03-18T21:47:44.550Z,16.42
2023-03-18T21:50:24.159Z,18.08
2023-03-18T21:52:52.106Z,15.60
2023-03-18T21:55:19.402Z,15.60
2023-03-18T21:57:48.839Z,19.73
2023-03-18T22:00:20.639Z,20.27
2023-03-18T22:02:48.314Z,21.80
2023-03-18T22:05:18.226Z,17.92
2023-03-18T22:07:45.334Z,17.63
2023-03-18T22:10:16.870Z,17.25
2023-03-18T22:12:43.811Z,16.27
2023-03-18T22:15:36.063Z,16.88
2023-03-18T22:18:03.185Z,17.98
2023-03-18T22:20:30.599Z,14.98
2023-03-18T22:22:57.470Z,17.13
2023-03-18T22:25:34.289Z,20.33
2023-03-18T22:28:01.545Z,19.30
2023-03-18T22:30:30.890Z,18.52
2023-03-18T22:32:59.178Z,15.82
2023-03-18T22:35:27.819Z,21.50
2023-03-18T22:37:55.252Z,15.77
2023-03-18T22:40:30.359Z,19.10
2023-03-18T22:43:01.627Z,14.82
2023-03-18T22:45:29.809Z,15.48
2023-03-18T22:47:59.390Z,12.82
2023-03-18T22:50:28.327Z,15.32
2023-03-18T22:53:08.322Z,18.20
2023-03-18T22:55:40.360Z,16.10
2023-03-18T22:58:07.657Z,19.45
2023-03-18T23:00:38.424Z,14.60
2023-03-18T23:03:18.598Z,16.00
2023-03-18T23:05:48.129Z,13.35
2023-03-18T23:08:15.426Z,13.98
2023-03-18T23:10:43.831Z,14.25
2023-03-18T23:13:28.898Z,13.60
2023-03-18T23:15:56.308Z,15.15
2023-03-18T23:18:23.766Z,14.73
2023-03-18T23:20:51.827Z,14.43
2023-03-18T23:23:20.946Z,12.55
2023-03-18T23:25:47.964Z,16.52
2023-03-18T23:28:16.146Z,15.90
2023-03-18T23:30:46.604Z,14.65
2023-03-18T23:33:13.941Z,16.50
2023-03-18T23:35:41.836Z,15.82
2023-03-18T23:38:08.633Z,15.18
2023-03-18T23:40:35.701Z,14.55
2023-03-18T23:43:04.018Z,14.30
2023-03-18T23:45:32.066Z,17.85
2023-03-18T23:47:59.068Z,15.75
2023-03-18T23:50:25.874Z,15.63
2023-03-18T23:52:52.714Z,16.52
2023-03-18T23:55:37.888Z,14.82
2023-03-18T23:58:05.282Z,19.67
